sensor_id;sensor_type;location;lat;lon;timestamp;pressure;altitude;pressure_sealevel;temperature;humidity
17649;BME280;8943;51.110;-4.158;2023-04-21T00:00:24;101278.75;;;14.52;37.79
17649;BME280;8943;51.110;-4.158;2023-04-21T00:03:21;101280.84;;;14.48;37.67
17649;BME280;8943;51.110;-4.158;2023-04-21T00:06:07;101277.53;;;14.45;37.40
17649;BME280;8943;51.110;-4.158;2023-04-21T00:08:39;101275.47;;;14.37;37.24
17649;BME280;8943;51.110;-4.158;2023-04-21T00:11:26;101268.03;;;14.29;38.06
17649;BME280;8943;51.110;-4.158;2023-04-21T00:14:23;101257.94;;;14.22;37.63
17649;BME280;8943;51.110;-4.158;2023-04-21T00:17:06;101255.16;;;14.12;37.79
17649;BME280;8943;51.110;-4.158;2023-04-21T00:19:48;101255.63;;;14.06;37.83
17649;BME280;8943;51.110;-4.158;2023-04-21T00:22:35;101256.38;;;13.97;37.87
17649;BME280;8943;51.110;-4.158;2023-04-21T00:27:59;101243.94;;;13.84;38.42
17649;BME280;8943;51.110;-4.158;2023-04-21T00:30:55;101252.44;;;13.78;37.91
17649;BME280;8943;51.110;-4.158;2023-04-21T00:33:31;101242.81;;;13.76;38.40
17649;BME280;8943;51.110;-4.158;2023-04-21T00:36:27;101244.06;;;13.72;38.52
17649;BME280;8943;51.110;-4.158;2023-04-21T00:42:33;101229.66;;;13.61;38.04
17649;BME280;8943;51.110;-4.158;2023-04-21T00:45:02;101222.09;;;13.55;38.55
17649;BME280;8943;51.110;-4.158;2023-04-21T00:47:31;101214.44;;;13.51;38.34
17649;BME280;8943;51.110;-4.158;2023-04-21T00:50:02;101214.78;;;13.46;38.78
17649;BME280;8943;51.110;-4.158;2023-04-21T00:52:31;101220.84;;;13.37;38.77
17649;BME280;8943;51.110;-4.158;2023-04-21T00:55:02;101208.69;;;13.33;39.12
17649;BME280;8943;51.110;-4.158;2023-04-21T00:57:34;101203.56;;;13.30;39.25
17649;BME280;8943;51.110;-4.158;2023-04-21T01:00:04;101193.34;;;13.24;39.22
17649;BME280;8943;51.110;-4.158;2023-04-21T01:02:38;101181.13;;;13.20;39.39
17649;BME280;8943;51.110;-4.158;2023-04-21T01:05:08;101183.09;;;13.18;39.16
17649;BME280;8943;51.110;-4.158;2023-04-21T01:07:38;101177.13;;;13.14;39.45
17649;BME280;8943;51.110;-4.158;2023-04-21T01:10:08;101176.72;;;13.07;39.93
17649;BME280;8943;51.110;-4.158;2023-04-21T01:12:46;101175.03;;;13.06;39.88
17649;BME280;8943;51.110;-4.158;2023-04-21T01:15:16;101163.69;;;13.03;39.53
17649;BME280;8943;51.110;-4.158;2023-04-21T01:17:45;101174.66;;;13.00;40.24
17649;BME280;8943;51.110;-4.158;2023-04-21T01:20:14;101164.31;;;12.95;40.00
17649;BME280;8943;51.110;-4.158;2023-04-21T01:22:45;101159.94;;;12.94;40.03
17649;BME280;8943;51.110;-4.158;2023-04-21T01:25:15;101160.88;;;12.93;40.02
17649;BME280;8943;51.110;-4.158;2023-04-21T01:27:44;101167.44;;;12.89;39.94
17649;BME280;8943;51.110;-4.158;2023-04-21T01:30:13;101159.53;;;12.87;40.27
17649;BME280;8943;51.110;-4.158;2023-04-21T01:32:55;101154.44;;;12.84;40.17
17649;BME280;8943;51.110;-4.158;2023-04-21T01:35:26;101151.97;;;12.81;40.10
17649;BME280;8943;51.110;-4.158;2023-04-21T01:38:00;101142.38;;;12.79;39.99
17649;BME280;8943;51.110;-4.158;2023-04-21T01:40:33;101139.94;;;12.76;40.38
17649;BME280;8943;51.110;-4.158;2023-04-21T01:43:05;101138.22;;;12.75;40.21
17649;BME280;8943;51.110;-4.158;2023-04-21T01:45:38;101143.78;;;12.72;40.55
17649;BME280;8943;51.110;-4.158;2023-04-21T01:48:07;101142.31;;;12.68;40.51
17649;BME280;8943;51.110;-4.158;2023-04-21T01:50:37;101132.81;;;12.63;40.46
17649;BME280;8943;51.110;-4.158;2023-04-21T01:53:09;101127.72;;;12.60;41.01
17649;BME280;8943;51.110;-4.158;2023-04-21T01:55:39;101120.91;;;12.56;40.97
17649;BME280;8943;51.110;-4.158;2023-04-21T01:58:08;101121.13;;;12.53;40.81
17649;BME280;8943;51.110;-4.158;2023-04-21T02:00:36;101138.25;;;12.51;40.49
17649;BME280;8943;51.110;-4.158;2023-04-21T02:03:06;101137.63;;;12.47;40.84
17649;BME280;8943;51.110;-4.158;2023-04-21T02:05:40;101126.44;;;12.42;40.64
17649;BME280;8943;51.110;-4.158;2023-04-21T02:08:15;101114.25;;;12.38;41.36
17649;BME280;8943;51.110;-4.158;2023-04-21T02:10:44;101118.13;;;12.34;41.12
17649;BME280;8943;51.110;-4.158;2023-04-21T02:13:13;101126.47;;;12.29;41.18
17649;BME280;8943;51.110;-4.158;2023-04-21T02:15:43;101133.13;;;12.24;41.30
17649;BME280;8943;51.110;-4.158;2023-04-21T02:18:14;101137.00;;;12.20;41.15
17649;BME280;8943;51.110;-4.158;2023-04-21T02:20:42;101142.56;;;12.17;41.05
17649;BME280;8943;51.110;-4.158;2023-04-21T02:23:14;101141.81;;;12.15;41.54
17649;BME280;8943;51.110;-4.158;2023-04-21T02:25:43;101140.38;;;12.10;41.52
17649;BME280;8943;51.110;-4.158;2023-04-21T02:28:13;101144.72;;;12.11;41.21
17649;BME280;8943;51.110;-4.158;2023-04-21T02:30:43;101143.97;;;12.09;41.31
17649;BME280;8943;51.110;-4.158;2023-04-21T02:33:33;101141.53;;;12.06;41.24
17649;BME280;8943;51.110;-4.158;2023-04-21T02:36:05;101145.19;;;12.05;41.45
17649;BME280;8943;51.110;-4.158;2023-04-21T02:38:42;101141.75;;;12.03;41.43
17649;BME280;8943;51.110;-4.158;2023-04-21T02:41:14;101138.56;;;11.98;41.87
17649;BME280;8943;51.110;-4.158;2023-04-21T02:43:44;101142.22;;;11.97;41.80
17649;BME280;8943;51.110;-4.158;2023-04-21T02:46:13;101138.78;;;11.95;41.38
17649;BME280;8943;51.110;-4.158;2023-04-21T02:48:42;101138.06;;;11.93;41.59
17649;BME280;8943;51.110;-4.158;2023-04-21T02:51:12;101137.31;;;11.91;41.78
17649;BME280;8943;51.110;-4.158;2023-04-21T02:53:44;101141.56;;;11.94;41.97
17649;BME280;8943;51.110;-4.158;2023-04-21T02:56:13;101131.97;;;11.91;41.91
17649;BME280;8943;51.110;-4.158;2023-04-21T02:58:43;101126.84;;;11.88;42.08
17649;BME280;8943;51.110;-4.158;2023-04-21T03:01:17;101133.03;;;11.89;41.83
17649;BME280;8943;51.110;-4.158;2023-04-21T03:03:46;101134.88;;;11.88;42.24
17649;BME280;8943;51.110;-4.158;2023-04-21T03:06:18;101130.50;;;11.87;42.16
17649;BME280;8943;51.110;-4.158;2023-04-21T03:08:51;101118.97;;;11.87;42.05
17649;BME280;8943;51.110;-4.158;2023-04-21T03:11:21;101121.72;;;11.85;42.24
17649;BME280;8943;51.110;-4.158;2023-04-21T03:13:50;101115.53;;;11.84;42.21
17649;BME280;8943;51.110;-4.158;2023-04-21T03:16:46;101106.88;;;11.81;42.32
17649;BME280;8943;51.110;-4.158;2023-04-21T03:19:42;101096.41;;;11.78;41.91
17649;BME280;8943;51.110;-4.158;2023-04-21T03:22:45;101104.63;;;11.75;42.21
17649;BME280;8943;51.110;-4.158;2023-04-21T03:50:13;101075.34;;;11.49;42.45
17649;BME280;8943;51.110;-4.158;2023-04-21T03:52:48;101085.06;;;11.50;42.54
17649;BME280;8943;51.110;-4.158;2023-04-21T03:55:18;101085.91;;;11.51;42.57
17649;BME280;8943;51.110;-4.158;2023-04-21T03:57:54;101075.22;;;11.51;42.32
17649;BME280;8943;51.110;-4.158;2023-04-21T04:00:25;101077.91;;;11.51;42.74
17649;BME280;8943;51.110;-4.158;2023-04-21T04:03:23;101074.38;;;11.50;42.55
17649;BME280;8943;51.110;-4.158;2023-04-21T04:06:14;101056.66;;;11.49;42.74
17649;BME280;8943;51.110;-4.158;2023-04-21T04:08:46;101052.06;;;11.51;42.71
17649;BME280;8943;51.110;-4.158;2023-04-21T04:11:30;101051.13;;;11.52;42.66
17649;BME280;8943;51.110;-4.158;2023-04-21T04:14:09;101050.59;;;11.47;43.17
17649;BME280;8943;51.110;-4.158;2023-04-21T04:17:00;101049.75;;;11.47;42.95
17649;BME280;8943;51.110;-4.158;2023-04-21T04:19:47;101039.94;;;11.47;42.85
17649;BME280;8943;51.110;-4.158;2023-04-21T04:22:44;101042.59;;;11.47;43.29
17649;BME280;8943;51.110;-4.158;2023-04-21T04:25:14;101032.78;;;11.48;43.17
17649;BME280;8943;51.110;-4.158;2023-04-21T04:27:44;101037.34;;;11.46;43.59
17649;BME280;8943;51.110;-4.158;2023-04-21T04:30:16;101030.19;;;11.46;43.50
17649;BME280;8943;51.110;-4.158;2023-04-21T04:32:55;101034.47;;;11.49;43.49
17649;BME280;8943;51.110;-4.158;2023-04-21T04:35:46;101036.16;;;11.50;43.52
17649;BME280;8943;51.110;-4.158;2023-04-21T04:38:35;101026.34;;;11.50;43.70
17649;BME280;8943;51.110;-4.158;2023-04-21T04:41:19;101027.19;;;11.51;43.78
17649;BME280;8943;51.110;-4.158;2023-04-21T04:44:06;101021.00;;;11.50;43.73
17649;BME280;8943;51.110;-4.158;2023-04-21T04:46:38;101023.59;;;11.52;43.48
17649;BME280;8943;51.110;-4.158;2023-04-21T04:49:11;101015.59;;;11.52;43.43
17649;BME280;8943;51.110;-4.158;2023-04-21T04:52:08;101013.75;;;11.52;43.37
17649;BME280;8943;51.110;-4.158;2023-04-21T04:54:53;101005.84;;;11.51;43.49
17649;BME280;8943;51.110;-4.158;2023-04-21T04:57:22;101005.75;;;11.52;43.37
17649;BME280;8943;51.110;-4.158;2023-04-21T05:00:19;101013.75;;;11.52;43.66
17649;BME280;8943;51.110;-4.158;2023-04-21T05:03:19;101012.03;;;11.51;43.60
17649;BME280;8943;51.110;-4.158;2023-04-21T05:06:22;101000.63;;;11.49;43.54
17649;BME280;8943;51.110;-4.158;2023-04-21T05:09:20;101005.25;;;11.47;43.91
17649;BME280;8943;51.110;-4.158;2023-04-21T05:12:26;101020.41;;;11.47;44.05
17649;BME280;8943;51.110;-4.158;2023-04-21T05:15:23;101014.19;;;11.46;43.70
17649;BME280;8943;51.110;-4.158;2023-04-21T05:18:02;101010.44;;;11.49;43.68
17649;BME280;8943;51.110;-4.158;2023-04-21T05:20:53;101000.75;;;11.48;43.63
17649;BME280;8943;51.110;-4.158;2023-04-21T05:23:27;101002.31;;;11.50;43.77
17649;BME280;8943;51.110;-4.158;2023-04-21T05:25:55;100998.81;;;11.50;44.04
17649;BME280;8943;51.110;-4.158;2023-04-21T05:28:32;100988.13;;;11.50;43.79
17649;BME280;8943;51.110;-4.158;2023-04-21T05:31:04;100984.63;;;11.49;43.79
17649;BME280;8943;51.110;-4.158;2023-04-21T05:33:33;100983.66;;;11.50;44.21
17649;BME280;8943;51.110;-4.158;2023-04-21T05:36:21;100997.00;;;11.50;44.10
17649;BME280;8943;51.110;-4.158;2023-04-21T05:38:51;100985.47;;;11.50;43.92
17649;BME280;8943;51.110;-4.158;2023-04-21T05:41:27;100985.34;;;11.51;44.11
17649;BME280;8943;51.110;-4.158;2023-04-21T05:50:04;100996.19;;;11.61;44.44
17649;BME280;8943;51.110;-4.158;2023-04-21T05:52:33;100999.63;;;11.63;44.28
17649;BME280;8943;51.110;-4.158;2023-04-21T05:55:07;100997.69;;;11.65;44.30
17649;BME280;8943;51.110;-4.158;2023-04-21T05:57:51;100989.59;;;11.67;44.61
17649;BME280;8943;51.110;-4.158;2023-04-21T06:00:20;100988.38;;;11.71;44.71
17649;BME280;8943;51.110;-4.158;2023-04-21T06:03:02;100987.19;;;11.75;44.82
17649;BME280;8943;51.110;-4.158;2023-04-21T06:08:55;100981.41;;;11.81;44.78
17649;BME280;8943;51.110;-4.158;2023-04-21T06:11:50;100977.53;;;11.85;45.34
17649;BME280;8943;51.110;-4.158;2023-04-21T06:14:51;100977.13;;;11.91;45.23
17649;BME280;8943;51.110;-4.158;2023-04-21T06:17:55;100976.53;;;11.99;45.18
17649;BME280;8943;51.110;-4.158;2023-04-21T06:21:16;100984.69;;;12.08;45.23
17649;BME280;8943;51.110;-4.158;2023-04-21T06:24:06;100971.84;;;12.14;45.23
17649;BME280;8943;51.110;-4.158;2023-04-21T06:26:35;100982.94;;;12.20;45.29
17649;BME280;8943;51.110;-4.158;2023-04-21T06:29:06;100988.78;;;12.25;45.44
17649;BME280;8943;51.110;-4.158;2023-04-21T06:32:05;100984.53;;;12.34;45.46
17649;BME280;8943;51.110;-4.158;2023-04-21T06:35:06;100980.16;;;12.44;45.57
17649;BME280;8943;51.110;-4.158;2023-04-21T06:38:24;100971.56;;;12.52;45.28
17649;BME280;8943;51.110;-4.158;2023-04-21T06:40:53;100965.16;;;12.54;45.60
17649;BME280;8943;51.110;-4.158;2023-04-21T06:43:22;100966.59;;;12.58;45.64
17649;BME280;8943;51.110;-4.158;2023-04-21T06:46:05;100962.72;;;12.62;45.53
17649;BME280;8943;51.110;-4.158;2023-04-21T06:48:40;100955.19;;;12.68;45.82
17649;BME280;8943;51.110;-4.158;2023-04-21T06:51:23;100949.47;;;12.72;45.73
17649;BME280;8943;51.110;-4.158;2023-04-21T06:53:53;100950.09;;;12.76;46.12
17649;BME280;8943;51.110;-4.158;2023-04-21T06:56:21;100945.59;;;12.76;46.34
17649;BME280;8943;51.110;-4.158;2023-04-21T06:59:04;100947.06;;;12.80;46.23
17649;BME280;8943;51.110;-4.158;2023-04-21T07:01:50;100944.25;;;12.82;46.23
17649;BME280;8943;51.110;-4.158;2023-04-21T07:04:52;100945.72;;;12.86;45.99
17649;BME280;8943;51.110;-4.158;2023-04-21T07:07:50;100942.91;;;12.87;46.84
17649;BME280;8943;51.110;-4.158;2023-04-21T07:16:07;100929.91;;;12.94;46.57
17649;BME280;8943;51.110;-4.158;2023-04-21T07:19:14;100933.53;;;13.04;46.75
17649;BME280;8943;51.110;-4.158;2023-04-21T07:22:09;100939.59;;;13.06;46.53
17649;BME280;8943;51.110;-4.158;2023-04-21T07:25:00;100934.75;;;13.11;46.59
17649;BME280;8943;51.110;-4.158;2023-04-21T07:30:37;100916.75;;;13.25;46.54
17649;BME280;8943;51.110;-4.158;2023-04-21T07:33:13;100916.50;;;13.28;46.39
17649;BME280;8943;51.110;-4.158;2023-04-21T07:35:48;100910.53;;;13.35;46.79
17649;BME280;8943;51.110;-4.158;2023-04-21T07:38:36;100908.91;;;13.44;46.44
17649;BME280;8943;51.110;-4.158;2023-04-21T07:41:23;100894.78;;;13.53;46.33
17649;BME280;8943;51.110;-4.158;2023-04-21T07:44:06;100885.53;;;13.57;46.38
17649;BME280;8943;51.110;-4.158;2023-04-21T07:46:36;100896.94;;;13.59;46.01
17649;BME280;8943;51.110;-4.158;2023-04-21T07:49:07;100900.06;;;13.64;46.01
17649;BME280;8943;51.110;-4.158;2023-04-21T07:51:36;100893.63;;;13.67;46.10
17649;BME280;8943;51.110;-4.158;2023-04-21T07:54:06;100890.56;;;13.72;46.41
17649;BME280;8943;51.110;-4.158;2023-04-21T07:57:03;100884.81;;;13.76;46.22
17649;BME280;8943;51.110;-4.158;2023-04-21T07:59:37;100882.47;;;13.83;46.16
17649;BME280;8943;51.110;-4.158;2023-04-21T08:02:08;100882.94;;;13.88;46.21
17649;BME280;8943;51.110;-4.158;2023-04-21T08:05:25;100879.72;;;13.94;46.14
17649;BME280;8943;51.110;-4.158;2023-04-21T08:08:10;100884.44;;;14.02;46.22
17649;BME280;8943;51.110;-4.158;2023-04-21T08:11:04;100883.91;;;14.08;45.80
17649;BME280;8943;51.110;-4.158;2023-04-21T08:17:12;100884.28;;;14.24;46.01
17649;BME280;8943;51.110;-4.158;2023-04-21T08:20:12;100886.06;;;14.35;45.64
17649;BME280;8943;51.110;-4.158;2023-04-21T09:02:25;100842.88;;;15.96;42.78
17649;BME280;8943;51.110;-4.158;2023-04-21T09:05:09;100838.88;;;16.00;42.55
17649;BME280;8943;51.110;-4.158;2023-04-21T09:08:12;100838.19;;;15.98;42.63
17649;BME280;8943;51.110;-4.158;2023-04-21T09:11:32;100841.28;;;16.03;42.69
17649;BME280;8943;51.110;-4.158;2023-04-21T09:14:33;100834.75;;;16.15;42.61
17649;BME280;8943;51.110;-4.158;2023-04-21T09:27:14;100823.09;;;16.62;41.66
17649;BME280;8943;51.110;-4.158;2023-04-21T09:29:50;100824.75;;;16.72;41.82
17649;BME280;8943;51.110;-4.158;2023-04-21T09:32:20;100821.72;;;16.85;41.68
17649;BME280;8943;51.110;-4.158;2023-04-21T09:34:50;100817.69;;;16.99;41.34
17649;BME280;8943;51.110;-4.158;2023-04-21T09:37:23;100815.59;;;17.11;41.08
17649;BME280;8943;51.110;-4.158;2023-04-21T09:40:20;100814.53;;;17.21;41.24
17649;BME280;8943;51.110;-4.158;2023-04-21T09:43:01;100814.31;;;17.33;40.82
17649;BME280;8943;51.110;-4.158;2023-04-21T09:45:57;100819.47;;;17.44;40.68
17649;BME280;8943;51.110;-4.158;2023-04-21T09:48:30;100812.81;;;17.56;40.52
17649;BME280;8943;51.110;-4.158;2023-04-21T09:51:24;100807.66;;;17.63;40.31
17649;BME280;8943;51.110;-4.158;2023-04-21T09:54:18;100805.97;;;17.80;40.09
17649;BME280;8943;51.110;-4.158;2023-04-21T09:57:20;100805.19;;;17.87;39.68
17649;BME280;8943;51.110;-4.158;2023-04-21T10:03:38;100802.16;;;18.16;39.30
17649;BME280;8943;51.110;-4.158;2023-04-21T10:08:56;100798.94;;;18.47;38.77
17649;BME280;8943;51.110;-4.158;2023-04-21T10:11:25;100793.25;;;18.58;38.42
17649;BME280;8943;51.110;-4.158;2023-04-21T10:14:01;100796.69;;;18.68;38.00
17649;BME280;8943;51.110;-4.158;2023-04-21T10:16:34;100790.66;;;18.83;38.29
17649;BME280;8943;51.110;-4.158;2023-04-21T10:19:24;100791.34;;;18.93;38.22
17649;BME280;8943;51.110;-4.158;2023-04-21T10:21:54;100789.34;;;19.03;37.71
17649;BME280;8943;51.110;-4.158;2023-04-21T10:24:28;100783.97;;;19.11;37.59
17649;BME280;8943;51.110;-4.158;2023-04-21T10:27:30;100778.72;;;19.18;37.09
17649;BME280;8943;51.110;-4.158;2023-04-21T10:29:58;100777.56;;;19.20;36.94
17649;BME280;8943;51.110;-4.158;2023-04-21T10:32:38;100780.94;;;19.22;36.92
17649;BME280;8943;51.110;-4.158;2023-04-21T10:35:59;100770.47;;;19.19;36.50
17649;BME280;8943;51.110;-4.158;2023-04-21T10:38:33;100765.91;;;19.03;36.36
17649;BME280;8943;51.110;-4.158;2023-04-21T10:41:25;100765.03;;;18.87;36.32
17649;BME280;8943;51.110;-4.158;2023-04-21T10:43:57;100766.34;;;18.74;36.58
17649;BME280;8943;51.110;-4.158;2023-04-21T10:46:32;100753.63;;;18.67;36.39
17649;BME280;8943;51.110;-4.158;2023-04-21T10:49:05;100754.97;;;18.55;36.58
17649;BME280;8943;51.110;-4.158;2023-04-21T10:52:01;100747.34;;;18.50;36.52
17649;BME280;8943;51.110;-4.158;2023-04-21T10:54:36;100756.13;;;18.52;36.79
17649;BME280;8943;51.110;-4.158;2023-04-21T10:57:09;100742.97;;;18.57;36.98
17649;BME280;8943;51.110;-4.158;2023-04-21T10:59:39;100739.69;;;18.71;36.72
17649;BME280;8943;51.110;-4.158;2023-04-21T11:02:10;100736.00;;;18.81;36.50
17649;BME280;8943;51.110;-4.158;2023-04-21T11:04:39;100739.56;;;18.97;36.55
17649;BME280;8943;51.110;-4.158;2023-04-21T11:07:15;100735.03;;;19.14;36.30
17649;BME280;8943;51.110;-4.158;2023-04-21T11:09:45;100725.91;;;19.23;36.35
17649;BME280;8943;51.110;-4.158;2023-04-21T11:12:16;100719.97;;;19.36;35.95
17649;BME280;8943;51.110;-4.158;2023-04-21T11:14:46;100721.16;;;19.42;35.40
17649;BME280;8943;51.110;-4.158;2023-04-21T11:17:17;100723.84;;;19.50;35.04
17649;BME280;8943;51.110;-4.158;2023-04-21T11:19:46;100714.59;;;19.52;34.80
17649;BME280;8943;51.110;-4.158;2023-04-21T11:22:23;100711.38;;;19.57;34.84
17649;BME280;8943;51.110;-4.158;2023-04-21T11:24:54;100718.13;;;19.69;34.69
17649;BME280;8943;51.110;-4.158;2023-04-21T11:27:26;100712.00;;;19.84;34.34
17649;BME280;8943;51.110;-4.158;2023-04-21T11:29:54;100710.97;;;19.85;34.07
17649;BME280;8943;51.110;-4.158;2023-04-21T11:32:23;100704.22;;;19.80;33.93
17649;BME280;8943;51.110;-4.158;2023-04-21T11:34:51;100698.50;;;19.75;34.05
17649;BME280;8943;51.110;-4.158;2023-04-21T11:37:25;100696.50;;;19.69;33.98
17649;BME280;8943;51.110;-4.158;2023-04-21T11:39:57;100691.41;;;19.66;34.24
17649;BME280;8943;51.110;-4.158;2023-04-21T11:42:26;100693.63;;;19.54;33.91
17649;BME280;8943;51.110;-4.158;2023-04-21T11:44:55;100692.78;;;19.46;33.93
17649;BME280;8943;51.110;-4.158;2023-04-21T11:47:24;100692.44;;;19.41;34.04
17649;BME280;8943;51.110;-4.158;2023-04-21T11:49:54;100687.91;;;19.33;34.05
17649;BME280;8943;51.110;-4.158;2023-04-21T11:52:26;100683.34;;;19.25;34.00
17649;BME280;8943;51.110;-4.158;2023-04-21T11:54:58;100679.81;;;19.17;34.05
17649;BME280;8943;51.110;-4.158;2023-04-21T11:57:28;100674.91;;;19.12;34.20
17649;BME280;8943;51.110;-4.158;2023-04-21T11:59:58;100673.75;;;18.98;34.08
17649;BME280;8943;51.110;-4.158;2023-04-21T12:02:28;100677.47;;;18.89;34.36
17649;BME280;8943;51.110;-4.158;2023-04-21T12:04:58;100662.75;;;18.84;34.67
17649;BME280;8943;51.110;-4.158;2023-04-21T12:07:30;100676.09;;;18.85;34.63
17649;BME280;8943;51.110;-4.158;2023-04-21T12:09:59;100674.25;;;18.86;34.88
17649;BME280;8943;51.110;-4.158;2023-04-21T12:12:28;100668.88;;;18.94;35.02
17649;BME280;8943;51.110;-4.158;2023-04-21T12:14:57;100673.72;;;19.07;35.02
17649;BME280;8943;51.110;-4.158;2023-04-21T12:17:35;100669.38;;;19.14;35.32
17649;BME280;8943;51.110;-4.158;2023-04-21T12:20:04;100667.31;;;19.16;34.99
17649;BME280;8943;51.110;-4.158;2023-04-21T12:22:34;100665.63;;;19.07;34.71
17649;BME280;8943;51.110;-4.158;2023-04-21T12:25:04;100665.28;;;19.01;34.79
17649;BME280;8943;51.110;-4.158;2023-04-21T12:27:33;100664.31;;;18.94;35.14
17649;BME280;8943;51.110;-4.158;2023-04-21T12:30:01;100663.13;;;18.89;35.31
17649;BME280;8943;51.110;-4.158;2023-04-21T12:32:30;100655.53;;;18.84;35.58
17649;BME280;8943;51.110;-4.158;2023-04-21T12:34:58;100654.16;;;18.80;35.94
17649;BME280;8943;51.110;-4.158;2023-04-21T12:37:27;100643.19;;;18.82;36.07
17649;BME280;8943;51.110;-4.158;2023-04-21T12:39:57;100646.91;;;18.72;35.90
17649;BME280;8943;51.110;-4.158;2023-04-21T12:42:25;100643.47;;;18.62;36.01
17649;BME280;8943;51.110;-4.158;2023-04-21T12:44:53;100647.69;;;18.57;36.20
17649;BME280;8943;51.110;-4.158;2023-04-21T12:47:22;100650.06;;;18.51;36.44
17649;BME280;8943;51.110;-4.158;2023-04-21T12:49:50;100641.13;;;18.51;36.37
17649;BME280;8943;51.110;-4.158;2023-04-21T12:52:18;100631.19;;;18.60;37.04
17649;BME280;8943;51.110;-4.158;2023-04-21T12:54:47;100632.41;;;18.82;36.88
17649;BME280;8943;51.110;-4.158;2023-04-21T12:57:17;100633.91;;;18.92;36.78
17649;BME280;8943;51.110;-4.158;2023-04-21T12:59:46;100623.63;;;18.96;36.74
17649;BME280;8943;51.110;-4.158;2023-04-21T13:02:14;100624.28;;;19.06;36.50
17649;BME280;8943;51.110;-4.158;2023-04-21T13:04:43;100621.56;;;19.30;36.17
17649;BME280;8943;51.110;-4.158;2023-04-21T13:07:11;100618.97;;;19.45;35.79
17649;BME280;8943;51.110;-4.158;2023-04-21T13:09:46;100618.13;;;19.61;35.11
17649;BME280;8943;51.110;-4.158;2023-04-21T13:12:15;100611.03;;;19.60;34.68
17649;BME280;8943;51.110;-4.158;2023-04-21T13:14:44;100612.75;;;19.45;34.69
17649;BME280;8943;51.110;-4.158;2023-04-21T13:17:13;100610.75;;;19.30;34.45
17649;BME280;8943;51.110;-4.158;2023-04-21T13:19:42;100605.06;;;19.09;34.38
17649;BME280;8943;51.110;-4.158;2023-04-21T13:22:10;100610.63;;;18.91;34.52
17649;BME280;8943;51.110;-4.158;2023-04-21T13:24:38;100611.47;;;18.75;34.69
17649;BME280;8943;51.110;-4.158;2023-04-21T13:27:06;100600.81;;;18.66;34.90
17649;BME280;8943;51.110;-4.158;2023-04-21T13:29:35;100607.75;;;18.60;35.01
17649;BME280;8943;51.110;-4.158;2023-04-21T13:32:06;100605.19;;;18.50;35.14
17649;BME280;8943;51.110;-4.158;2023-04-21T13:34:34;100596.91;;;18.44;34.87
17649;BME280;8943;51.110;-4.158;2023-04-21T13:37:02;100605.16;;;18.34;35.13
17649;BME280;8943;51.110;-4.158;2023-04-21T13:39:31;100601.91;;;18.14;35.04
17649;BME280;8943;51.110;-4.158;2023-04-21T13:42:01;100598.16;;;17.99;35.16
17649;BME280;8943;51.110;-4.158;2023-04-21T13:44:29;100592.41;;;17.94;35.55
17649;BME280;8943;51.110;-4.158;2023-04-21T13:46:58;100587.34;;;17.83;35.43
17649;BME280;8943;51.110;-4.158;2023-04-21T13:49:28;100583.53;;;17.67;35.86
17649;BME280;8943;51.110;-4.158;2023-04-21T13:51:58;100584.88;;;17.63;35.83
17649;BME280;8943;51.110;-4.158;2023-04-21T13:54:26;100579.44;;;17.55;35.88
17649;BME280;8943;51.110;-4.158;2023-04-21T13:56:55;100572.00;;;17.49;35.75
17649;BME280;8943;51.110;-4.158;2023-04-21T13:59:24;100574.34;;;17.44;36.29
17649;BME280;8943;51.110;-4.158;2023-04-21T14:01:52;100573.63;;;17.42;36.28
17649;BME280;8943;51.110;-4.158;2023-04-21T14:04:20;100564.03;;;17.39;36.31
17649;BME280;8943;51.110;-4.158;2023-04-21T14:06:50;100572.78;;;17.41;36.41
17649;BME280;8943;51.110;-4.158;2023-04-21T14:09:19;100566.56;;;17.41;36.65
17649;BME280;8943;51.110;-4.158;2023-04-21T14:11:49;100564.03;;;17.39;36.75
17649;BME280;8943;51.110;-4.158;2023-04-21T14:14:18;100573.50;;;17.43;36.56
17649;BME280;8943;51.110;-4.158;2023-04-21T14:17:03;100569.31;;;17.49;36.66
17649;BME280;8943;51.110;-4.158;2023-04-21T14:19:32;100562.25;;;17.48;36.54
17649;BME280;8943;51.110;-4.158;2023-04-21T14:22:03;100564.75;;;17.49;36.56
17649;BME280;8943;51.110;-4.158;2023-04-21T14:24:33;100562.38;;;17.46;36.52
17649;BME280;8943;51.110;-4.158;2023-04-21T14:27:01;100563.41;;;17.45;36.77
17649;BME280;8943;51.110;-4.158;2023-04-21T14:29:30;100554.66;;;17.51;36.73
17649;BME280;8943;51.110;-4.158;2023-04-21T14:32:00;100556.19;;;17.54;36.91
17649;BME280;8943;51.110;-4.158;2023-04-21T14:34:29;100552.38;;;17.65;37.32
17649;BME280;8943;51.110;-4.158;2023-04-21T14:36:59;100555.13;;;17.73;36.81
17649;BME280;8943;51.110;-4.158;2023-04-21T14:39:36;100547.56;;;17.77;36.74
17649;BME280;8943;51.110;-4.158;2023-04-21T14:42:05;100548.59;;;17.84;36.65
17649;BME280;8943;51.110;-4.158;2023-04-21T14:44:35;100546.25;;;17.89;36.58
17649;BME280;8943;51.110;-4.158;2023-04-21T14:47:04;100541.19;;;17.94;36.69
17649;BME280;8943;51.110;-4.158;2023-04-21T14:49:36;100539.38;;;18.02;36.54
17649;BME280;8943;51.110;-4.158;2023-04-21T14:52:05;100532.78;;;18.05;36.40
17649;BME280;8943;51.110;-4.158;2023-04-21T14:54:36;100535.69;;;18.12;36.55
17649;BME280;8943;51.110;-4.158;2023-04-21T14:57:04;100525.75;;;18.20;36.58
17649;BME280;8943;51.110;-4.158;2023-04-21T14:59:46;100522.03;;;18.30;36.69
17649;BME280;8943;51.110;-4.158;2023-04-21T15:02:18;100514.66;;;18.40;36.60
17649;BME280;8943;51.110;-4.158;2023-04-21T15:04:48;100528.63;;;18.43;36.61
17649;BME280;8943;51.110;-4.158;2023-04-21T15:07:17;100519.38;;;18.46;36.47
17649;BME280;8943;51.110;-4.158;2023-04-21T15:09:52;100511.94;;;18.48;36.73
17649;BME280;8943;51.110;-4.158;2023-04-21T15:12:22;100516.84;;;18.36;36.46
17649;BME280;8943;51.110;-4.158;2023-04-21T15:14:52;100510.41;;;18.29;36.44
17649;BME280;8943;51.110;-4.158;2023-04-21T15:17:21;100514.25;;;18.10;36.53
17649;BME280;8943;51.110;-4.158;2023-04-21T15:19:51;100500.28;;;17.98;36.66
17649;BME280;8943;51.110;-4.158;2023-04-21T15:22:20;100497.91;;;17.87;36.74
17649;BME280;8943;51.110;-4.158;2023-04-21T15:24:59;100502.38;;;17.70;37.06
17649;BME280;8943;51.110;-4.158;2023-04-21T15:27:29;100502.50;;;17.61;37.01